Time;durP1;ratioP1;P1;durP2;ratioP2;P2;SDS_P1;SDS_P2;PMS_P1;PMS_P2;Temp;Humidity;BMP_temperature;BMP_pressure;BME280_temperature;BME280_humidity;BME280_pressure;Samples;Min_cycle;Max_cycle;Signal;HPM_P1;HPM_P2
2022/07/07 00:00:44;;;;;;;;;;;18.30;93.90;;;;;;5035507;28;20214;-65
2022/07/07 00:03:12;;;;;;;;;;;18.30;94.10;;;;;;5037296;28;20213;-66
2022/07/07 00:05:40;;;;;;;;;;;18.20;94.20;;;;;;5037709;28;20202;-64
2022/07/07 00:08:08;;;;;;;;;;;18.20;94.40;;;;;;5036790;28;20229;-65
2022/07/07 00:10:36;;;;;;;;;;;18.10;94.40;;;;;;5034941;28;20202;-64
2022/07/07 00:13:03;;;;;;;;;;;18.10;94.60;;;;;;5036059;28;20226;-66
2022/07/07 00:15:31;;;;;;;;;;;18.00;94.70;;;;;;5038363;28;20198;-65
2022/07/07 00:18:00;;;;;;;;;;;18.00;95.00;;;;;;5036946;28;20201;-65
2022/07/07 00:20:29;;;;;;;;;;;18.00;94.80;;;;;;5034286;28;20214;-65
2022/07/07 00:22:56;;;;;;;;;;;18.00;95.00;;;;;;5036561;28;20260;-66
2022/07/07 00:25:24;;;;;;;;;;;18.00;95.00;;;;;;5037383;28;20198;-65
2022/07/07 00:27:52;;;;;;;;;;;17.90;95.10;;;;;;5036776;28;20831;-65
2022/07/07 00:30:20;;;;;;;;;;;17.80;95.10;;;;;;5034282;28;20202;-66
2022/07/07 00:32:48;;;;;;;;;;;17.80;95.30;;;;;;5036747;28;20686;-65
2022/07/07 00:35:17;;;;;;;;;;;17.90;95.40;;;;;;5036992;28;20206;-65
2022/07/07 00:37:44;;;;;;;;;;;17.80;95.60;;;;;;5037238;28;20953;-65
2022/07/07 00:40:12;;;;;;;;;;;17.70;95.80;;;;;;5034959;28;20206;-65
2022/07/07 00:42:40;;;;;;;;;;;17.70;96.10;;;;;;5036138;28;20225;-65
2022/07/07 00:45:08;;;;;;;;;;;17.60;96.20;;;;;;5036143;28;20222;-65
2022/07/07 00:47:37;;;;;;;;;;;17.60;96.40;;;;;;5037004;28;20210;-65
2022/07/07 00:50:05;;;;;;;;;;;17.60;96.70;;;;;;5034065;28;20213;-64
2022/07/07 00:52:34;;;;;;;;;;;17.60;96.70;;;;;;5035525;28;21152;-65
2022/07/07 00:55:03;;;;;;;;;;;17.60;96.70;;;;;;5035532;28;20202;-65
2022/07/07 00:57:32;;;;;;;;;;;17.60;96.90;;;;;;5036618;28;20209;-65
2022/07/07 01:00:01;;;;;;;;;;;17.60;96.90;;;;;;5034159;28;20209;-67
2022/07/07 01:02:30;;;;;;;;;;;17.60;97.20;;;;;;5035647;28;20213;-68
2022/07/07 01:04:59;;;;;;;;;;;17.70;97.20;;;;;;5035309;28;20216;-67
2022/07/07 01:07:27;;;;;;;;;;;17.70;97.10;;;;;;5036528;28;20206;-67
2022/07/07 01:09:57;;;;;;;;;;;17.70;97.50;;;;;;5033604;28;20202;-67
2022/07/07 01:12:25;;;;;;;;;;;17.70;97.40;;;;;;5035889;28;20206;-67
2022/07/07 01:14:52;;;;;;;;;;;17.70;97.50;;;;;;5036145;28;20218;-67
2022/07/07 01:17:20;;;;;;;;;;;17.60;97.80;;;;;;5036284;28;20211;-67
2022/07/07 01:19:48;;;;;;;;;;;17.60;98.30;;;;;;5034041;28;20202;-67
2022/07/07 01:22:17;;;;;;;;;;;17.60;98.50;;;;;;5036064;28;20272;-67
2022/07/07 01:24:46;;;;;;;;;;;17.60;98.70;;;;;;5051234;28;20195;-67
2022/07/07 01:27:14;;;;;;;;;;;17.60;98.90;;;;;;5051977;28;20559;-67
2022/07/07 01:29:43;;;;;;;;;;;17.60;99.10;;;;;;5051636;28;20663;-68
2022/07/07 01:32:11;;;;;;;;;;;17.40;99.40;;;;;;5051416;28;20225;-66
2022/07/07 01:34:39;;;;;;;;;;;17.40;99.80;;;;;;5051317;28;20206;-67
2022/07/07 01:37:07;;;;;;;;;;;17.40;99.90;;;;;;5051830;28;20222;-67
2022/07/07 01:39:36;;;;;;;;;;;17.40;99.90;;;;;;5051581;28;20202;-67
2022/07/07 01:42:05;;;;;;;;;;;17.40;99.90;;;;;;5051121;28;20210;-67
2022/07/07 01:44:33;;;;;;;;;;;17.30;99.90;;;;;;5051317;28;20900;-67
2022/07/07 01:47:01;;;;;;;;;;;17.30;99.90;;;;;;5051111;28;20195;-67
2022/07/07 01:49:30;;;;;;;;;;;17.30;99.90;;;;;;5051152;28;20202;-67
2022/07/07 01:51:57;;;;;;;;;;;17.40;99.90;;;;;;5051163;28;20203;-67
2022/07/07 01:54:25;;;;;;;;;;;17.40;99.90;;;;;;5050958;28;20252;-66
2022/07/07 01:56:53;;;;;;;;;;;17.30;99.90;;;;;;5051381;28;20203;-67
2022/07/07 01:59:23;;;;;;;;;;;17.40;99.90;;;;;;5051185;28;20209;-67
2022/07/07 02:01:50;;;;;;;;;;;17.30;99.90;;;;;;5051264;28;20209;-68
2022/07/07 02:04:18;;;;;;;;;;;17.40;99.90;;;;;;5050271;28;20198;-67
2022/07/07 02:06:46;;;;;;;;;;;17.40;99.90;;;;;;5050333;28;20194;-67
2022/07/07 02:09:14;;;;;;;;;;;17.40;99.90;;;;;;5051350;28;20289;-67
2022/07/07 02:11:42;;;;;;;;;;;17.40;99.90;;;;;;5050954;28;20202;-67
2022/07/07 02:14:10;;;;;;;;;;;17.60;99.90;;;;;;5050301;28;20202;-67
2022/07/07 02:16:39;;;;;;;;;;;17.70;99.90;;;;;;5050862;28;20240;-67
2022/07/07 02:19:08;;;;;;;;;;;17.60;99.90;;;;;;5050881;28;20256;-67
2022/07/07 02:21:36;;;;;;;;;;;17.60;99.90;;;;;;5050662;28;20198;-67
2022/07/07 02:24:04;;;;;;;;;;;17.60;99.90;;;;;;5050376;28;20194;-67
2022/07/07 02:26:33;;;;;;;;;;;17.70;99.90;;;;;;5050932;28;20753;-67
2022/07/07 02:29:01;;;;;;;;;;;17.50;99.90;;;;;;5052367;28;20210;-67
2022/07/07 02:31:29;;;;;;;;;;;17.40;99.90;;;;;;5050230;28;20340;-67
2022/07/07 02:33:58;;;;;;;;;;;17.40;99.90;;;;;;5050329;28;20209;-68
2022/07/07 02:36:26;;;;;;;;;;;17.30;99.90;;;;;;5050487;28;20194;-66
2022/07/07 02:38:55;;;;;;;;;;;17.20;99.90;;;;;;5050722;28;20202;-66
2022/07/07 02:41:23;;;;;;;;;;;17.20;99.90;;;;;;5050861;28;20236;-67
2022/07/07 02:43:51;;;;;;;;;;;17.30;99.90;;;;;;5050145;28;20705;-67
2022/07/07 02:46:19;;;;;;;;;;;17.30;99.90;;;;;;5050392;28;20201;-67
2022/07/07 02:48:47;;;;;;;;;;;17.40;99.90;;;;;;5050391;28;20210;-67
2022/07/07 02:51:16;;;;;;;;;;;17.40;99.90;;;;;;5050481;28;20198;-67
2022/07/07 02:53:44;;;;;;;;;;;17.40;99.90;;;;;;5050259;28;20206;-67
2022/07/07 02:56:11;;;;;;;;;;;17.40;99.90;;;;;;5050331;28;20276;-67
2022/07/07 02:58:39;;;;;;;;;;;17.50;99.90;;;;;;5050752;28;20611;-66
2022/07/07 03:01:07;;;;;;;;;;;17.50;99.90;;;;;;5050536;28;20198;-67
2022/07/07 03:03:36;;;;;;;;;;;17.50;99.90;;;;;;5050115;28;20623;-67
2022/07/07 03:06:04;;;;;;;;;;;17.40;99.90;;;;;;5050205;28;20202;-67
2022/07/07 03:08:33;;;;;;;;;;;17.30;99.90;;;;;;5050593;28;20202;-67
2022/07/07 03:11:01;;;;;;;;;;;17.30;99.90;;;;;;5050460;28;20260;-67
2022/07/07 03:13:28;;;;;;;;;;;17.30;99.90;;;;;;5049754;28;20613;-66
2022/07/07 03:15:57;;;;;;;;;;;17.30;99.90;;;;;;5049585;28;20705;-67
2022/07/07 03:18:25;;;;;;;;;;;17.20;99.90;;;;;;5051410;28;20202;-66
2022/07/07 03:20:53;;;;;;;;;;;17.30;99.90;;;;;;5034903;28;20208;-66
2022/07/07 03:23:21;;;;;;;;;;;17.30;99.90;;;;;;5053219;28;20829;-67
2022/07/07 03:25:50;;;;;;;;;;;17.20;99.90;;;;;;5053396;28;20205;-67
2022/07/07 03:28:17;;;;;;;;;;;17.20;99.90;;;;;;5054115;28;20213;-67
2022/07/07 03:30:45;;;;;;;;;;;17.20;99.90;;;;;;5053985;28;20252;-67
2022/07/07 03:33:13;;;;;;;;;;;17.20;99.90;;;;;;5053342;28;20209;-67
2022/07/07 03:35:41;;;;;;;;;;;17.30;99.90;;;;;;5054223;28;20202;-67
2022/07/07 03:38:09;;;;;;;;;;;17.30;99.90;;;;;;5053943;28;20252;-67
2022/07/07 03:40:37;;;;;;;;;;;17.20;99.90;;;;;;5054039;28;20198;-67
2022/07/07 03:43:06;;;;;;;;;;;17.20;99.90;;;;;;5053075;28;20234;-67
2022/07/07 03:45:34;;;;;;;;;;;17.30;99.90;;;;;;5053505;28;20244;-67
2022/07/07 03:48:01;;;;;;;;;;;17.20;99.90;;;;;;5053249;28;20252;-67
2022/07/07 03:50:29;;;;;;;;;;;17.30;99.90;;;;;;5053622;28;20244;-66
2022/07/07 03:52:58;;;;;;;;;;;17.30;99.90;;;;;;5053129;28;20213;-67
2022/07/07 03:55:26;;;;;;;;;;;17.40;99.90;;;;;;5053145;28;20210;-67
2022/07/07 03:57:59;;;;;;;;;;;17.40;99.90;;;;;;5053161;28;20611;-66
2022/07/07 04:00:29;;;;;;;;;;;17.50;99.90;;;;;;5053885;28;20220;-67
2022/07/07 04:02:57;;;;;;;;;;;17.40;99.90;;;;;;5052698;28;20202;-67
2022/07/07 04:05:24;;;;;;;;;;;17.50;99.90;;;;;;5050323;28;20729;-67
2022/07/07 04:07:52;;;;;;;;;;;17.50;99.90;;;;;;5053224;28;20194;-67
2022/07/07 04:10:20;;;;;;;;;;;17.60;99.90;;;;;;5053264;28;20289;-67
2022/07/07 04:12:48;;;;;;;;;;;17.50;99.90;;;;;;5052668;28;20581;-67
2022/07/07 04:15:15;;;;;;;;;;;17.60;99.90;;;;;;5053171;28;20545;-67
2022/07/07 04:17:45;;;;;;;;;;;17.50;99.90;;;;;;5052515;28;20229;-67
2022/07/07 04:20:12;;;;;;;;;;;17.50;99.90;;;;;;5052860;28;20252;-67
2022/07/07 04:22:40;;;;;;;;;;;17.40;99.90;;;;;;5051866;28;20220;-67
2022/07/07 04:25:09;;;;;;;;;;;17.40;99.90;;;;;;5052771;28;20198;-67
2022/07/07 04:27:36;;;;;;;;;;;17.50;99.90;;;;;;5052997;28;20202;-67
2022/07/07 04:30:05;;;;;;;;;;;17.60;99.90;;;;;;5049861;28;20202;-67
2022/07/07 04:32:33;;;;;;;;;;;17.70;99.90;;;;;;5036162;28;20587;-67
2022/07/07 04:35:02;;;;;;;;;;;17.80;99.90;;;;;;5037396;28;20260;-67
2022/07/07 04:37:30;;;;;;;;;;;17.80;99.90;;;;;;5036516;28;20206;-68
2022/07/07 04:39:57;;;;;;;;;;;17.80;99.90;;;;;;5035081;28;20843;-67
2022/07/07 04:42:25;;;;;;;;;;;17.70;99.90;;;;;;5036474;28;20206;-66
2022/07/07 04:44:53;;;;;;;;;;;17.60;99.90;;;;;;5036832;28;20174;-67
2022/07/07 04:47:21;;;;;;;;;;;17.60;99.90;;;;;;5035781;28;20769;-68
2022/07/07 04:49:48;;;;;;;;;;;17.60;99.90;;;;;;5034960;28;20772;-67
2022/07/07 04:52:17;;;;;;;;;;;17.60;99.90;;;;;;5036504;28;20226;-68
2022/07/07 04:54:45;;;;;;;;;;;17.70;99.90;;;;;;5035504;28;20251;-67
2022/07/07 04:57:13;;;;;;;;;;;17.70;99.90;;;;;;5035807;28;20190;-67
2022/07/07 04:59:41;;;;;;;;;;;17.70;99.90;;;;;;5034723;28;20695;-67
2022/07/07 05:02:09;;;;;;;;;;;17.70;99.90;;;;;;5036637;28;20198;-68
2022/07/07 05:04:37;;;;;;;;;;;17.70;99.90;;;;;;5036499;28;20295;-66
2022/07/07 05:07:05;;;;;;;;;;;17.80;99.90;;;;;;5036686;28;20194;-67
2022/07/07 05:09:35;;;;;;;;;;;17.80;99.90;;;;;;5035215;28;20248;-68
2022/07/07 05:12:03;;;;;;;;;;;17.80;99.90;;;;;;5034341;28;20281;-67
2022/07/07 05:14:31;;;;;;;;;;;17.80;99.90;;;;;;5036085;28;20209;-66
2022/07/07 05:16:59;;;;;;;;;;;17.80;99.90;;;;;;5035888;28;20229;-66
2022/07/07 05:19:27;;;;;;;;;;;17.90;99.90;;;;;;5035703;28;20317;-67
2022/07/07 05:21:55;;;;;;;;;;;17.80;99.90;;;;;;5034642;28;20256;-65
2022/07/07 05:24:23;;;;;;;;;;;17.80;99.90;;;;;;5035139;28;20800;-66
2022/07/07 05:26:52;;;;;;;;;;;17.80;99.90;;;;;;5035981;28;20291;-67
2022/07/07 05:29:20;;;;;;;;;;;17.90;99.90;;;;;;5035712;28;20213;-66
2022/07/07 05:31:48;;;;;;;;;;;17.90;99.90;;;;;;5033465;28;21380;-67
2022/07/07 05:34:15;;;;;;;;;;;17.90;99.90;;;;;;5035634;28;20202;-67
2022/07/07 05:36:43;;;;;;;;;;;17.80;99.90;;;;;;5035541;28;20757;-66
2022/07/07 05:39:13;;;;;;;;;;;17.90;99.90;;;;;;5036239;28;20202;-68
2022/07/07 05:41:41;;;;;;;;;;;17.90;99.90;;;;;;5031538;28;20198;-67
2022/07/07 05:44:10;;;;;;;;;;;18.00;99.90;;;;;;5035338;28;20271;-66
2022/07/07 05:46:38;;;;;;;;;;;18.00;99.90;;;;;;5034762;28;20264;-66
2022/07/07 05:49:05;;;;;;;;;;;18.10;99.90;;;;;;5017607;28;20194;-68
2022/07/07 05:51:33;;;;;;;;;;;18.10;99.90;;;;;;5033488;28;20285;-67
2022/07/07 05:54:01;;;;;;;;;;;18.10;99.90;;;;;;5034127;28;20210;-66
2022/07/07 05:56:30;;;;;;;;;;;18.10;99.90;;;;;;5036381;28;20324;-67
2022/07/07 05:58:57;;;;;;;;;;;18.10;99.90;;;;;;5035678;28;21170;-67
2022/07/07 06:01:26;;;;;;;;;;;18.10;99.90;;;;;;5033213;28;20202;-66
2022/07/07 06:03:54;;;;;;;;;;;18.10;99.90;;;;;;5033445;28;20213;-66
2022/07/07 06:06:22;;;;;;;;;;;18.10;99.90;;;;;;5035335;28;20213;-66
2022/07/07 06:08:50;;;;;;;;;;;18.00;99.90;;;;;;5035703;28;20198;-66
2022/07/07 06:11:18;;;;;;;;;;;18.20;99.90;;;;;;5032987;28;20206;-66
2022/07/07 06:13:51;;;;;;;;;;;18.20;99.90;;;;;;5033780;28;20198;-66
2022/07/07 06:16:38;;;;;;;;;;;18.30;99.90;;;;;;5035055;28;20238;-66
2022/07/07 06:19:08;;;;;;;;;;;18.20;99.90;;;;;;5035168;28;20209;-66
2022/07/07 06:21:36;;;;;;;;;;;18.30;99.90;;;;;;5033604;28;20626;-67
2022/07/07 06:24:04;;;;;;;;;;;18.30;99.90;;;;;;5034398;28;21481;-67
2022/07/07 06:26:31;;;;;;;;;;;18.50;99.90;;;;;;5034977;28;20856;-66
2022/07/07 06:28:59;;;;;;;;;;;18.70;99.90;;;;;;5034826;28;20232;-68
2022/07/07 06:31:27;;;;;;;;;;;18.70;99.90;;;;;;5033077;28;20210;-67
2022/07/07 06:33:55;;;;;;;;;;;18.80;99.90;;;;;;5034123;28;20198;-66
2022/07/07 06:36:24;;;;;;;;;;;18.80;99.90;;;;;;5034597;28;20210;-67
2022/07/07 06:38:52;;;;;;;;;;;18.80;99.90;;;;;;5034500;28;20257;-67
2022/07/07 06:41:22;;;;;;;;;;;18.80;99.90;;;;;;5032288;28;20210;-67
2022/07/07 06:43:50;;;;;;;;;;;18.90;99.90;;;;;;5034308;28;20214;-67
2022/07/07 06:46:17;;;;;;;;;;;19.00;99.90;;;;;;5033072;28;20654;-67
2022/07/07 06:48:45;;;;;;;;;;;19.00;99.90;;;;;;5035086;28;20201;-66
2022/07/07 06:51:13;;;;;;;;;;;19.00;99.90;;;;;;5030954;28;20206;-66
2022/07/07 06:53:42;;;;;;;;;;;19.00;99.90;;;;;;5037354;28;20202;-68
2022/07/07 06:56:10;;;;;;;;;;;19.00;99.90;;;;;;5038656;28;20201;-67
2022/07/07 06:58:37;;;;;;;;;;;19.10;99.90;;;;;;5039294;28;20934;-68
2022/07/07 07:01:05;;;;;;;;;;;19.10;99.90;;;;;;5036200;28;20210;-67
2022/07/07 07:03:33;;;;;;;;;;;19.20;99.90;;;;;;5038207;28;20205;-66
2022/07/07 07:06:03;;;;;;;;;;;19.20;99.90;;;;;;5039426;28;20212;-67
2022/07/07 07:08:31;;;;;;;;;;;19.20;99.90;;;;;;5039575;28;20210;-67
2022/07/07 07:11:00;;;;;;;;;;;19.20;99.90;;;;;;5035356;28;20252;-66
2022/07/07 07:13:28;;;;;;;;;;;19.20;99.90;;;;;;5037498;28;20317;-67
2022/07/07 07:15:56;;;;;;;;;;;19.10;99.90;;;;;;5036852;28;20303;-67
2022/07/07 07:18:24;;;;;;;;;;;19.10;99.90;;;;;;5038623;28;20238;-66
2022/07/07 07:20:52;;;;;;;;;;;19.20;99.90;;;;;;5035908;28;20214;-67
2022/07/07 07:23:20;;;;;;;;;;;19.20;99.90;;;;;;5036290;28;20765;-66
2022/07/07 07:25:48;;;;;;;;;;;19.30;99.90;;;;;;5033554;28;20210;-68
2022/07/07 07:28:19;;;;;;;;;;;19.40;99.90;;;;;;5029563;28;20206;-66
2022/07/07 07:30:47;;;;;;;;;;;19.40;99.90;;;;;;5032594;28;21163;-67
2022/07/07 07:33:15;;;;;;;;;;;19.40;99.90;;;;;;5036788;28;20150;-67
2022/07/07 07:35:43;;;;;;;;;;;19.50;99.90;;;;;;5037405;28;20297;-68
2022/07/07 07:38:11;;;;;;;;;;;19.50;99.90;;;;;;5037347;28;20201;-67
2022/07/07 07:40:38;;;;;;;;;;;19.60;99.90;;;;;;5036194;28;20206;-67
2022/07/07 07:43:06;;;;;;;;;;;19.50;99.90;;;;;;5032799;28;20268;-67
2022/07/07 07:45:35;;;;;;;;;;;19.60;99.90;;;;;;5036570;28;20210;-67
2022/07/07 07:48:04;;;;;;;;;;;19.60;99.90;;;;;;5037234;28;20221;-67
2022/07/07 07:50:32;;;;;;;;;;;19.70;99.90;;;;;;5035919;28;20248;-66
2022/07/07 07:53:03;;;;;;;;;;;19.80;99.90;;;;;;5037188;28;20248;-68
2022/07/07 07:55:31;;;;;;;;;;;19.80;99.90;;;;;;5036648;28;20228;-67
2022/07/07 07:57:59;;;;;;;;;;;20.00;99.90;;;;;;5037837;28;20210;-67
2022/07/07 08:00:27;;;;;;;;;;;20.10;99.90;;;;;;5035825;28;21027;-67
2022/07/07 08:02:56;;;;;;;;;;;20.30;99.90;;;;;;5037208;28;20210;-66
2022/07/07 08:05:25;;;;;;;;;;;20.30;99.90;;;;;;5035483;28;20214;-67
2022/07/07 08:07:53;;;;;;;;;;;20.40;99.90;;;;;;5037172;28;20267;-67
2022/07/07 08:10:21;;;;;;;;;;;20.40;99.90;;;;;;5034481;28;20219;-68
2022/07/07 08:12:49;;;;;;;;;;;20.30;99.90;;;;;;5035756;28;20264;-67
2022/07/07 08:15:17;;;;;;;;;;;20.20;99.90;;;;;;5037565;28;20206;-67
2022/07/07 08:17:45;;;;;;;;;;;20.30;99.90;;;;;;5037538;28;20256;-68
2022/07/07 08:20:15;;;;;;;;;;;20.30;99.90;;;;;;5035322;28;20199;-66
2022/07/07 08:22:42;;;;;;;;;;;20.20;99.90;;;;;;5035082;28;20190;-69
2022/07/07 08:25:10;;;;;;;;;;;20.20;99.90;;;;;;5037371;28;20229;-67
2022/07/07 08:27:38;;;;;;;;;;;20.10;99.90;;;;;;5037972;28;20202;-68
2022/07/07 08:30:08;;;;;;;;;;;20.10;99.90;;;;;;5036021;28;20206;-67
2022/07/07 08:32:36;;;;;;;;;;;20.00;99.90;;;;;;5035530;28;20280;-67
2022/07/07 08:35:05;;;;;;;;;;;20.00;99.90;;;;;;5037409;28;20336;-68
2022/07/07 08:37:34;;;;;;;;;;;20.00;99.90;;;;;;5037250;28;20198;-67
2022/07/07 08:40:01;;;;;;;;;;;20.10;99.90;;;;;;5035085;28;20320;-67
2022/07/07 08:42:35;;;;;;;;;;;20.10;99.90;;;;;;5037392;28;20297;-67
2022/07/07 08:45:03;;;;;;;;;;;20.10;99.90;;;;;;5036992;28;20264;-67
2022/07/07 08:47:31;;;;;;;;;;;20.10;99.90;;;;;;5036452;28;20202;-67
2022/07/07 08:50:17;;;;;;;;;;;20.20;99.90;;;;;;5033822;28;21142;-67
2022/07/07 08:52:50;;;;;;;;;;;20.40;99.90;;;;;;5035338;28;20194;-67
2022/07/07 08:55:21;;;;;;;;;;;20.40;99.90;;;;;;5034936;28;20690;-69
2022/07/07 08:57:50;;;;;;;;;;;20.40;99.90;;;;;;5036295;28;20275;-67
2022/07/07 09:00:18;;;;;;;;;;;20.30;99.90;;;;;;5032743;28;20205;-67
2022/07/07 09:02:46;;;;;;;;;;;20.30;99.90;;;;;;5035711;28;20206;-66
2022/07/07 09:05:13;;;;;;;;;;;20.40;99.90;;;;;;5035002;28;20237;-66
2022/07/07 09:07:47;;;;;;;;;;;20.20;99.90;;;;;;5036575;28;20198;-67
2022/07/07 09:10:27;;;;;;;;;;;20.30;99.90;;;;;;5034516;28;20940;-67
2022/07/07 09:12:55;;;;;;;;;;;20.10;99.90;;;;;;5036014;28;20218;-66
2022/07/07 09:15:24;;;;;;;;;;;20.00;99.90;;;;;;5035346;28;20166;-66
2022/07/07 09:17:52;;;;;;;;;;;20.10;99.90;;;;;;5035087;28;20096;-66
2022/07/07 09:20:19;;;;;;;;;;;20.00;99.90;;;;;;5034096;28;20231;-66
2022/07/07 09:22:50;;;;;;;;;;;19.90;99.90;;;;;;5034478;28;20275;-67
2022/07/07 09:25:23;;;;;;;;;;;19.90;99.90;;;;;;5036121;28;20662;-66
2022/07/07 09:27:58;;;;;;;;;;;19.50;99.90;;;;;;5035070;28;20194;-66
2022/07/07 09:30:27;;;;;;;;;;;19.40;99.90;;;;;;5035028;28;20202;-67
2022/07/07 09:32:55;;;;;;;;;;;19.20;99.90;;;;;;5035004;28;20275;-66
2022/07/07 09:38:15;;;;;;;;;;;19.40;99.90;;;;;;5002687;28;20234;-66
2022/07/07 09:40:59;;;;;;;;;;;19.30;99.90;;;;;;5032747;28;20611;-66
2022/07/07 09:43:28;;;;;;;;;;;19.30;99.90;;;;;;5035419;28;20214;-66
2022/07/07 09:46:06;;;;;;;;;;;19.50;99.90;;;;;;5035728;28;20202;-65
2022/07/07 09:48:34;;;;;;;;;;;19.50;99.90;;;;;;5035457;28;20268;-65
2022/07/07 09:51:17;;;;;;;;;;;19.60;99.90;;;;;;5034726;28;20261;-66
2022/07/07 09:53:53;;;;;;;;;;;19.80;99.90;;;;;;5032859;28;20245;-65
2022/07/07 09:56:25;;;;;;;;;;;20.10;99.90;;;;;;5035420;28;20210;-66
2022/07/07 09:58:53;;;;;;;;;;;20.30;99.90;;;;;;5036229;28;20210;-65
2022/07/07 10:01:24;;;;;;;;;;;20.60;99.90;;;;;;5032332;28;20285;-66
2022/07/07 10:03:54;;;;;;;;;;;20.70;99.90;;;;;;5035288;28;20202;-65
2022/07/07 10:06:22;;;;;;;;;;;20.80;99.90;;;;;;5034501;28;20216;-65
2022/07/07 10:08:51;;;;;;;;;;;21.00;99.90;;;;;;5033967;28;20237;-65
2022/07/07 10:11:21;;;;;;;;;;;21.30;99.90;;;;;;5032113;28;20213;-65
2022/07/07 10:13:49;;;;;;;;;;;21.40;99.90;;;;;;5034193;28;20697;-65
2022/07/07 10:16:17;;;;;;;;;;;21.40;99.90;;;;;;5035266;28;20210;-65
2022/07/07 10:18:49;;;;;;;;;;;21.60;99.90;;;;;;5033511;28;20289;-64
2022/07/07 10:21:18;;;;;;;;;;;21.90;99.90;;;;;;5032440;28;20213;-66
2022/07/07 10:23:46;;;;;;;;;;;22.20;99.90;;;;;;5033694;28;20621;-66
2022/07/07 10:26:14;;;;;;;;;;;22.00;99.90;;;;;;5033397;28;20233;-67
2022/07/07 10:28:54;;;;;;;;;;;21.90;99.90;;;;;;5031667;28;20295;-67
2022/07/07 10:31:22;;;;;;;;;;;21.90;99.90;;;;;;5032867;28;20202;-66
2022/07/07 10:33:59;;;;;;;;;;;22.10;99.90;;;;;;5033823;28;20212;-66
2022/07/07 10:36:26;;;;;;;;;;;22.80;99.90;;;;;;5035329;28;20206;-65
2022/07/07 10:38:58;;;;;;;;;;;23.10;99.90;;;;;;5034822;28;20202;-65
2022/07/07 10:41:26;;;;;;;;;;;22.90;99.90;;;;;;5032815;28;20277;-66
2022/07/07 10:44:01;;;;;;;;;;;22.90;99.90;;;;;;5034063;28;20733;-64
2022/07/07 10:46:29;;;;;;;;;;;22.50;99.90;;;;;;5034496;28;20291;-65
2022/07/07 10:49:06;;;;;;;;;;;22.20;99.90;;;;;;5034114;28;20210;-65
2022/07/07 10:51:51;;;;;;;;;;;21.60;99.90;;;;;;5032084;28;20569;-65
2022/07/07 10:54:31;;;;;;;;;;;21.40;99.90;;;;;;5034437;28;20229;-65
2022/07/07 10:57:15;;;;;;;;;;;20.90;99.90;;;;;;5034868;28;20302;-65
2022/07/07 11:00:06;;;;;;;;;;;20.60;99.90;;;;;;5032299;28;20202;-67
2022/07/07 11:02:35;;;;;;;;;;;20.50;99.90;;;;;;5034644;28;20194;-66
2022/07/07 11:05:04;;;;;;;;;;;20.10;99.90;;;;;;5034429;28;20930;-65
2022/07/07 11:07:32;;;;;;;;;;;19.80;99.90;;;;;;5034724;28;20211;-66
2022/07/07 11:10:00;;;;;;;;;;;19.70;99.90;;;;;;5032072;28;20272;-65
2022/07/07 11:12:33;;;;;;;;;;;19.90;99.90;;;;;;5034181;28;20202;-65
2022/07/07 11:15:20;;;;;;;;;;;20.00;99.90;;;;;;5034255;28;20230;-65
2022/07/07 11:18:07;;;;;;;;;;;20.10;99.90;;;;;;5033938;28;20827;-64
2022/07/07 11:20:35;;;;;;;;;;;20.20;99.90;;;;;;5033561;28;20198;-66
2022/07/07 11:23:06;;;;;;;;;;;20.50;99.90;;;;;;5033091;28;20261;-66
2022/07/07 11:25:34;;;;;;;;;;;20.50;99.90;;;;;;5034521;28;20280;-64
2022/07/07 11:28:04;;;;;;;;;;;20.50;99.90;;;;;;5035223;28;20206;-69
2022/07/07 11:30:32;;;;;;;;;;;20.70;99.90;;;;;;5032161;28;21125;-65
2022/07/07 11:33:02;;;;;;;;;;;20.90;99.90;;;;;;5033192;28;20279;-65
2022/07/07 11:35:30;;;;;;;;;;;20.90;99.90;;;;;;5033248;28;20230;-66
2022/07/07 11:37:58;;;;;;;;;;;21.10;99.90;;;;;;5034032;28;20659;-66
2022/07/07 11:40:26;;;;;;;;;;;21.30;99.90;;;;;;5036471;28;20198;-66
2022/07/07 11:42:54;;;;;;;;;;;21.60;99.90;;;;;;5037050;28;20206;-65
2022/07/07 11:45:22;;;;;;;;;;;21.70;99.90;;;;;;5036977;28;21465;-66
2022/07/07 11:47:50;;;;;;;;;;;21.70;99.90;;;;;;5035977;28;20260;-65
2022/07/07 11:50:20;;;;;;;;;;;21.70;99.90;;;;;;5035139;28;20256;-65
2022/07/07 11:52:48;;;;;;;;;;;21.50;99.90;;;;;;5036538;28;20218;-65
2022/07/07 11:55:18;;;;;;;;;;;21.40;99.90;;;;;;5036767;28;20210;-65
2022/07/07 11:57:49;;;;;;;;;;;21.50;99.90;;;;;;5036666;28;20850;-65
2022/07/07 12:00:18;;;;;;;;;;;21.30;99.90;;;;;;5035338;28;20575;-65
2022/07/07 12:02:47;;;;;;;;;;;21.70;99.90;;;;;;5036629;28;20212;-65
2022/07/07 12:05:16;;;;;;;;;;;22.10;99.90;;;;;;5037278;28;20197;-66
2022/07/07 12:07:52;;;;;;;;;;;22.10;99.90;;;;;;5036485;28;20251;-66
2022/07/07 12:10:21;;;;;;;;;;;22.00;99.90;;;;;;5034490;28;20268;-65
2022/07/07 12:12:55;;;;;;;;;;;22.30;99.90;;;;;;5035812;28;20974;-65
2022/07/07 12:15:23;;;;;;;;;;;22.20;99.90;;;;;;5037425;28;20303;-65
2022/07/07 12:17:51;;;;;;;;;;;22.20;99.90;;;;;;5037028;28;20214;-67
2022/07/07 12:20:19;;;;;;;;;;;22.40;99.90;;;;;;5035166;28;20209;-65
2022/07/07 12:22:53;;;;;;;;;;;22.30;99.90;;;;;;5035448;28;20330;-65
2022/07/07 12:25:21;;;;;;;;;;;22.50;99.90;;;;;;5037010;28;20313;-65
2022/07/07 12:28:07;;;;;;;;;;;22.40;99.90;;;;;;5036460;28;20198;-66
2022/07/07 12:30:35;;;;;;;;;;;22.70;99.90;;;;;;5035083;28;20268;-66
2022/07/07 12:33:03;;;;;;;;;;;22.90;99.90;;;;;;5036154;28;20296;-66
2022/07/07 12:35:32;;;;;;;;;;;22.80;99.90;;;;;;5036951;28;20210;-67
2022/07/07 12:38:02;;;;;;;;;;;22.60;99.90;;;;;;5035798;28;20210;-66
2022/07/07 12:40:31;;;;;;;;;;;22.70;99.90;;;;;;5036327;28;20691;-66
2022/07/07 12:43:04;;;;;;;;;;;22.60;99.90;;;;;;5036410;28;20213;-66
2022/07/07 12:45:32;;;;;;;;;;;22.20;99.90;;;;;;5036953;28;20580;-66
2022/07/07 12:48:00;;;;;;;;;;;22.00;99.90;;;;;;5035796;28;20206;-65
2022/07/07 12:50:28;;;;;;;;;;;22.00;99.90;;;;;;5034903;28;20218;-65
2022/07/07 12:52:57;;;;;;;;;;;21.90;99.90;;;;;;5035778;28;20213;-65
2022/07/07 12:55:33;;;;;;;;;;;21.70;99.90;;;;;;5035456;28;20214;-65
2022/07/07 12:58:05;;;;;;;;;;;21.60;99.90;;;;;;5036334;28;20230;-65
2022/07/07 13:00:34;;;;;;;;;;;21.30;99.90;;;;;;5034363;28;20687;-65
2022/07/07 13:03:01;;;;;;;;;;;21.20;99.90;;;;;;5035686;28;20273;-65
2022/07/07 13:05:29;;;;;;;;;;;21.00;99.90;;;;;;5036028;28;20198;-65
2022/07/07 13:07:57;;;;;;;;;;;20.60;99.90;;;;;;5036745;28;20276;-64
2022/07/07 13:10:27;;;;;;;;;;;20.30;99.90;;;;;;5033297;28;20390;-65
2022/07/07 13:12:56;;;;;;;;;;;20.20;99.90;;;;;;5035506;28;20229;-66
2022/07/07 13:15:24;;;;;;;;;;;19.70;99.90;;;;;;5036027;28;20211;-66
2022/07/07 13:17:51;;;;;;;;;;;19.60;99.90;;;;;;5035678;28;20256;-66
2022/07/07 13:20:19;;;;;;;;;;;19.70;99.90;;;;;;5034313;28;20213;-65
2022/07/07 13:22:47;;;;;;;;;;;20.10;99.90;;;;;;5035058;28;20198;-66
2022/07/07 13:25:15;;;;;;;;;;;21.10;99.90;;;;;;5035421;28;20202;-66
2022/07/07 13:27:43;;;;;;;;;;;22.10;99.90;;;;;;5034878;28;20194;-69
2022/07/07 13:30:12;;;;;;;;;;;23.10;99.90;;;;;;5034337;28;20782;-69
2022/07/07 13:32:43;;;;;;;;;;;23.60;99.90;;;;;;5034891;28;20201;-68
2022/07/07 13:35:11;;;;;;;;;;;23.60;99.90;;;;;;5036652;28;20206;-69
2022/07/07 13:37:39;;;;;;;;;;;23.70;99.90;;;;;;5035924;28;20244;-69
2022/07/07 13:40:07;;;;;;;;;;;23.80;99.90;;;;;;5034565;28;20209;-68
2022/07/07 13:42:36;;;;;;;;;;;24.10;99.90;;;;;;5035727;28;20271;-69
2022/07/07 13:45:04;;;;;;;;;;;24.20;99.90;;;;;;5035666;28;20768;-68
2022/07/07 13:47:33;;;;;;;;;;;24.20;99.90;;;;;;5035994;28;20202;-68
2022/07/07 13:50:01;;;;;;;;;;;24.20;99.90;;;;;;5033261;28;20206;-69
2022/07/07 13:52:49;;;;;;;;;;;23.80;99.90;;;;;;5033828;28;20206;-68
2022/07/07 13:55:17;;;;;;;;;;;23.80;99.90;;;;;;5035204;28;20225;-69
2022/07/07 13:57:45;;;;;;;;;;;23.40;99.90;;;;;;5035472;28;20194;-66
2022/07/07 14:00:13;;;;;;;;;;;23.10;99.90;;;;;;5033407;28;20268;-66
2022/07/07 14:02:45;;;;;;;;;;;22.80;99.90;;;;;;5034025;28;20786;-65
2022/07/07 14:05:14;;;;;;;;;;;22.60;99.90;;;;;;5033579;28;20224;-65
2022/07/07 14:07:41;;;;;;;;;;;22.50;99.90;;;;;;5035508;28;20210;-65
2022/07/07 14:10:10;;;;;;;;;;;22.40;99.90;;;;;;5033613;28;20846;-66
2022/07/07 14:12:38;;;;;;;;;;;22.60;99.90;;;;;;5035151;28;20202;-67
2022/07/07 14:15:07;;;;;;;;;;;22.60;99.90;;;;;;5037568;28;20206;-66
2022/07/07 14:17:35;;;;;;;;;;;22.30;99.90;;;;;;5037270;28;20264;-67
2022/07/07 14:20:05;;;;;;;;;;;22.20;99.90;;;;;;5033500;28;20931;-66
2022/07/07 14:22:34;;;;;;;;;;;22.20;99.90;;;;;;5034634;28;20238;-66
2022/07/07 14:25:01;;;;;;;;;;;22.50;99.90;;;;;;5035660;28;20209;-65
2022/07/07 14:27:30;;;;;;;;;;;23.10;99.90;;;;;;5035603;28;20276;-65
2022/07/07 14:29:59;;;;;;;;;;;23.70;99.90;;;;;;5033382;28;20294;-66